KLAR

Details ICAO KLAR (LAR)
Name LARAMIE RGNL
Region United States
Timezone America/Denver (UTC-6.0)
Plans Departing 18
Arriving 15
Stats Elevation 7,284 ft / 2,220 m (AMSL)
Location 41.312302° -105.674710°
Runways 2
Magnetic Variation 8.668° E
Sunrise 2018-05-25 11:37:13 UTC / 2018-05-25 05:37:13 Local
Sunset 2018-05-26 02:24:59 UTC / 2018-05-25 20:24:59 Local
Advertisement - Login to hide

Runways

ID Width Length Bearing (true) Bearing (mag) Surface Threshold Offset Overrun Length
03 151 ft / 46 m 8,498 ft / 2,590 m 45.45° 36.78° Asphalt 0 ft / 0 m 0 ft / 0 m
12 98 ft / 30 m 6,327 ft / 1,928 m 134.64° 125.97° Asphalt 0 ft / 0 m 0 ft / 0 m
21 151 ft / 46 m 8,498 ft / 2,590 m 225.46° 216.79° Asphalt 0 ft / 0 m 0 ft / 0 m
30 98 ft / 30 m 6,327 ft / 1,928 m 314.65° 305.98° Asphalt 0 ft / 0 m 0 ft / 0 m

Map

Weather


0- 5 10 15 20 25 30 35+ Temperature / ° C

Clouds and Precipitation
Forecast for 2018-05-25 12:00 UTC. Updated 2 hours ago

Ground ~20,000 ft ~40,000 ft Winds

METAR

KLAR 251253Z AUTO 18005KT 10SM CLR 08/02 A3023 RMK AO2 SLP143 T00780022

TAF

TAF KLAR 251120Z 2512/2612 19007KT P6SM SKC FM251700 27012G19KT P6SM SCT250 FM252300 20012KT P6SM BKN250

Frequencies

Recorded 135.47 MHz ASOS
Unicom 123.05 MHz CTAF/UNICOM
Warning: Do not use this data for real-world aviation or navigation. No guarantee of current accuracy is given.